createdAt,value
2019-03-08T00:00:20.684Z,9.3
2019-03-08T00:01:21.354Z,9.3
2019-03-08T00:02:22.022Z,9.4
2019-03-08T00:03:22.740Z,9.4
2019-03-08T00:04:23.407Z,9.5
2019-03-08T00:05:24.077Z,9.5
2019-03-08T00:06:24.744Z,9.5
2019-03-08T00:07:25.412Z,9.4
2019-03-08T00:08:26.279Z,9.4
2019-03-08T00:09:26.949Z,9.3
2019-03-08T00:10:27.616Z,9.3
2019-03-08T00:11:28.284Z,9.3
2019-03-08T00:12:28.954Z,9.3
2019-03-08T00:13:29.622Z,9.2
2019-03-08T00:14:30.291Z,9.2
2019-03-08T00:15:30.961Z,9.2
2019-03-08T00:16:31.633Z,9.1
2019-03-08T00:17:32.478Z,9.1
2019-03-08T00:18:33.147Z,9.2
2019-03-08T00:19:33.815Z,9.1
2019-03-08T00:20:34.483Z,9.1
2019-03-08T00:21:35.156Z,9.1
2019-03-08T00:22:35.822Z,9.1
2019-03-08T00:23:36.493Z,9.1
2019-03-08T00:24:37.162Z,9.1
2019-03-08T00:25:37.834Z,9.1
2019-03-08T00:26:38.500Z,9.1
2019-03-08T00:27:39.168Z,9.1
2019-03-08T00:28:39.884Z,9.0
2019-03-08T00:29:40.553Z,9.2
2019-03-08T00:30:41.223Z,9.2
2019-03-08T00:31:41.891Z,9.3
2019-03-08T00:32:42.560Z,9.3
2019-03-08T00:33:43.229Z,9.3
2019-03-08T00:34:44.064Z,9.3
2019-03-08T00:35:44.720Z,9.3
2019-03-08T00:36:45.390Z,9.3
2019-03-08T00:37:46.057Z,9.3
2019-03-08T00:38:46.724Z,9.3
2019-03-08T00:39:47.395Z,9.3
2019-03-08T00:40:48.082Z,9.2
2019-03-08T00:41:48.734Z,9.3
2019-03-08T00:42:49.402Z,9.3
2019-03-08T00:43:50.303Z,9.3
2019-03-08T00:44:50.992Z,9.3
2019-03-08T00:45:51.640Z,9.2
2019-03-08T00:46:52.310Z,9.2
2019-03-08T00:47:52.980Z,9.2
2019-03-08T00:48:53.648Z,9.3
2019-03-08T00:49:54.314Z,9.3
2019-03-08T00:50:54.984Z,9.3
2019-03-08T00:51:55.651Z,9.3
2019-03-08T00:52:56.327Z,9.3
2019-03-08T00:53:57.038Z,9.4
2019-03-08T00:54:57.707Z,9.3
2019-03-08T00:55:58.376Z,9.4
2019-03-08T00:56:59.046Z,9.5
2019-03-08T00:57:59.714Z,9.5
2019-03-08T00:59:00.383Z,9.5
2019-03-08T01:00:01.050Z,9.5
2019-03-08T01:01:01.903Z,9.6
2019-03-08T01:02:02.576Z,9.6
2019-03-08T01:03:03.291Z,9.6
2019-03-08T01:04:03.993Z,9.5
2019-03-08T01:05:04.627Z,9.6
2019-03-08T01:06:05.295Z,9.6
2019-03-08T01:07:05.965Z,9.6
2019-03-08T01:08:06.635Z,9.6
2019-03-08T01:09:07.313Z,9.6
2019-03-08T01:10:08.213Z,9.6
2019-03-08T01:11:08.882Z,9.7
2019-03-08T01:12:09.550Z,9.6
2019-03-08T01:13:10.219Z,9.6
2019-03-08T01:14:10.888Z,9.6
2019-03-08T01:15:11.556Z,9.7
2019-03-08T01:16:12.224Z,9.7
2019-03-08T01:17:12.895Z,9.7
2019-03-08T01:18:13.563Z,9.7
2019-03-08T01:19:14.233Z,9.6
2019-03-08T01:20:14.902Z,9.6
2019-03-08T01:21:15.607Z,9.7
2019-03-08T01:22:16.241Z,9.7
2019-03-08T01:23:16.910Z,9.7
2019-03-08T01:24:17.579Z,9.7
2019-03-08T01:25:18.248Z,9.6
2019-03-08T01:26:18.965Z,9.7
2019-03-08T01:27:19.799Z,9.6
2019-03-08T01:28:20.467Z,9.6
2019-03-08T01:29:21.135Z,9.6
2019-03-08T01:30:21.803Z,9.6
2019-03-08T01:31:22.474Z,9.6
2019-03-08T01:32:23.145Z,9.6
2019-03-08T01:33:23.813Z,9.6
2019-03-08T01:34:24.481Z,9.6
2019-03-08T01:35:25.149Z,9.6
2019-03-08T01:36:25.986Z,9.6
2019-03-08T01:37:26.657Z,9.6
2019-03-08T01:38:27.326Z,9.6
2019-03-08T01:39:27.994Z,9.6
2019-03-08T01:40:28.663Z,9.6
2019-03-08T01:41:29.333Z,9.5
2019-03-08T01:42:30.003Z,9.7
2019-03-08T01:43:30.671Z,9.6
2019-03-08T01:44:31.339Z,9.7
2019-03-08T01:45:32.183Z,9.6
2019-03-08T01:46:32.856Z,9.7
2019-03-08T01:47:33.522Z,9.7
2019-03-08T01:48:34.191Z,9.6
2019-03-08T01:49:34.858Z,9.6
2019-03-08T01:50:35.527Z,9.6
2019-03-08T01:51:36.197Z,9.6
2019-03-08T01:52:36.869Z,9.7
2019-03-08T01:53:37.534Z,9.7
2019-03-08T01:54:38.203Z,9.7
2019-03-08T01:55:38.871Z,9.7
2019-03-08T01:56:39.541Z,9.7
2019-03-08T01:57:40.211Z,9.7
2019-03-08T01:58:40.909Z,9.7
2019-03-08T01:59:41.585Z,9.7
2019-03-08T02:00:42.253Z,9.7
2019-03-08T02:01:42.922Z,9.8
2019-03-08T02:02:43.741Z,9.6
2019-03-08T02:03:44.410Z,9.7
2019-03-08T02:04:45.098Z,9.7
2019-03-08T02:05:45.750Z,9.7
2019-03-08T02:06:46.419Z,9.7
2019-03-08T02:07:47.087Z,9.7
2019-03-08T02:08:47.759Z,9.7
2019-03-08T02:09:48.427Z,9.7
2019-03-08T02:10:49.096Z,9.7
2019-03-08T02:11:49.946Z,9.7
2019-03-08T02:12:50.616Z,9.7
2019-03-08T02:13:51.285Z,9.7
2019-03-08T02:14:51.954Z,9.7
2019-03-08T02:15:52.621Z,9.7
2019-03-08T02:16:53.291Z,9.7
2019-03-08T02:17:53.961Z,9.7
2019-03-08T02:18:54.633Z,9.7
2019-03-08T02:19:55.300Z,9.7
2019-03-08T02:20:56.166Z,9.7
2019-03-08T02:21:56.835Z,9.7
2019-03-08T02:22:57.504Z,9.7
2019-03-08T02:23:58.172Z,9.8
2019-03-08T02:24:58.842Z,9.7
2019-03-08T02:25:59.509Z,9.7
2019-03-08T02:27:00.179Z,9.7
2019-03-08T02:28:00.848Z,9.7
2019-03-08T02:29:01.514Z,9.8
2019-03-08T02:30:02.181Z,9.8
2019-03-08T02:31:02.852Z,9.7
2019-03-08T02:32:03.526Z,9.8
2019-03-08T02:33:04.194Z,9.8
2019-03-08T02:34:04.861Z,9.8
2019-03-08T02:35:05.532Z,9.7
2019-03-08T02:36:06.199Z,9.7
2019-03-08T02:37:06.868Z,9.8
2019-03-08T02:38:07.702Z,9.7
2019-03-08T02:39:08.370Z,9.7
2019-03-08T02:40:09.038Z,9.8
2019-03-08T02:41:09.709Z,9.7
2019-03-08T02:42:10.382Z,9.7
2019-03-08T02:43:11.046Z,9.7
2019-03-08T02:44:11.716Z,9.6
2019-03-08T02:45:12.384Z,9.6
2019-03-08T02:46:13.053Z,9.7
2019-03-08T02:47:13.990Z,9.6
2019-03-08T02:48:14.658Z,9.6
2019-03-08T02:49:15.329Z,9.5
2019-03-08T02:50:16.000Z,9.5
2019-03-08T02:51:16.670Z,9.5
2019-03-08T02:52:17.386Z,9.5
2019-03-08T02:53:18.057Z,9.4
2019-03-08T02:54:18.726Z,9.4
2019-03-08T02:55:19.394Z,9.4
2019-03-08T02:56:20.277Z,9.5
2019-03-08T02:57:20.945Z,9.5
2019-03-08T02:58:21.615Z,9.5
2019-03-08T02:59:22.284Z,9.5
2019-03-08T03:00:22.954Z,9.5
2019-03-08T03:01:23.623Z,9.5
2019-03-08T03:02:24.294Z,9.5
2019-03-08T03:03:24.960Z,9.5
2019-03-08T03:04:25.628Z,9.5
2019-03-08T03:05:26.298Z,9.6
2019-03-08T03:06:26.965Z,9.5
2019-03-08T03:07:27.635Z,9.6
2019-03-08T03:08:28.304Z,9.5
2019-03-08T03:09:28.972Z,9.6
2019-03-08T03:10:29.641Z,9.5
2019-03-08T03:11:30.310Z,9.6
2019-03-08T03:12:30.978Z,9.6
2019-03-08T03:13:31.649Z,9.6
2019-03-08T03:14:32.317Z,9.6
2019-03-08T03:15:32.988Z,9.5
2019-03-08T03:16:33.702Z,9.5
2019-03-08T03:17:34.373Z,9.6
2019-03-08T03:18:35.041Z,9.5
2019-03-08T03:19:35.711Z,9.5
2019-03-08T03:20:36.378Z,9.6
2019-03-08T03:21:37.047Z,9.5
2019-03-08T03:22:37.880Z,9.4
2019-03-08T03:23:38.544Z,9.5
2019-03-08T03:24:39.214Z,9.5
2019-03-08T03:25:39.886Z,9.4
2019-03-08T03:26:40.552Z,9.4
2019-03-08T03:27:41.221Z,9.4
2019-03-08T03:28:41.889Z,9.4
2019-03-08T03:29:42.557Z,9.3
2019-03-08T03:30:43.230Z,9.3
2019-03-08T03:31:44.107Z,9.3
2019-03-08T03:32:44.770Z,9.3
2019-03-08T03:33:45.438Z,9.3
2019-03-08T03:34:46.108Z,9.3
2019-03-08T03:35:46.775Z,9.3
2019-03-08T03:36:47.445Z,9.2
2019-03-08T03:37:48.113Z,9.2
2019-03-08T03:38:48.781Z,9.3
2019-03-08T03:39:49.452Z,9.3
2019-03-08T03:40:50.119Z,9.2
2019-03-08T03:41:50.789Z,9.3
2019-03-08T03:42:51.503Z,9.2
2019-03-08T03:43:52.173Z,9.2
2019-03-08T03:44:52.842Z,9.3
2019-03-08T03:45:53.511Z,9.2
2019-03-08T03:46:54.180Z,9.3
2019-03-08T03:47:54.891Z,9.2
2019-03-08T03:48:55.722Z,9.2
2019-03-08T03:49:56.390Z,9.3
2019-03-08T03:50:57.061Z,9.3
2019-03-08T03:51:57.729Z,9.3
2019-03-08T03:52:58.397Z,9.4
2019-03-08T03:53:59.066Z,9.4
2019-03-08T03:54:59.783Z,9.3
2019-03-08T03:56:00.449Z,9.4
2019-03-08T03:57:01.117Z,9.4
2019-03-08T03:58:01.936Z,9.4
2019-03-08T03:59:02.606Z,9.4
2019-03-08T04:00:03.276Z,9.4
2019-03-08T04:01:03.948Z,9.4
2019-03-08T04:02:04.614Z,9.4
2019-03-08T04:03:05.291Z,9.4
2019-03-08T04:04:05.951Z,9.4
2019-03-08T04:05:06.623Z,9.4
2019-03-08T04:06:07.287Z,9.3
2019-03-08T04:07:08.214Z,9.3
2019-03-08T04:08:08.881Z,9.4
2019-03-08T04:09:09.551Z,9.4
2019-03-08T04:10:10.218Z,9.3
2019-03-08T04:11:10.887Z,9.4
2019-03-08T04:12:11.555Z,9.3
2019-03-08T04:13:12.225Z,9.4
2019-03-08T04:14:12.896Z,9.4
2019-03-08T04:15:13.609Z,9.4
2019-03-08T04:16:14.279Z,9.3
2019-03-08T04:17:14.948Z,9.3
2019-03-08T04:18:15.617Z,9.4
2019-03-08T04:19:16.285Z,9.3
2019-03-08T04:20:16.952Z,9.3
2019-03-08T04:21:17.621Z,9.3
2019-03-08T04:22:18.291Z,9.4
2019-03-08T04:23:18.961Z,9.4
2019-03-08T04:24:19.836Z,9.4
2019-03-08T04:25:20.505Z,9.4
2019-03-08T04:26:21.172Z,9.4
2019-03-08T04:27:21.842Z,9.3
2019-03-08T04:28:22.510Z,9.4
2019-03-08T04:29:23.180Z,9.4
2019-03-08T04:30:23.848Z,9.4
2019-03-08T04:31:24.516Z,9.5
2019-03-08T04:32:25.187Z,9.4
2019-03-08T04:33:26.122Z,9.4
2019-03-08T04:34:26.789Z,9.5
2019-03-08T04:35:27.458Z,9.5
2019-03-08T04:36:28.177Z,9.5
2019-03-08T04:37:28.883Z,9.5
2019-03-08T04:38:29.553Z,9.4
2019-03-08T04:39:30.221Z,9.5
2019-03-08T04:40:30.891Z,9.4
2019-03-08T04:41:31.560Z,9.5
2019-03-08T04:42:32.229Z,9.5
2019-03-08T04:43:32.898Z,9.5
2019-03-08T04:44:33.566Z,9.5
2019-03-08T04:45:34.237Z,9.5
2019-03-08T04:46:34.908Z,9.5
2019-03-08T04:47:35.626Z,9.4
2019-03-08T04:48:36.292Z,9.4
2019-03-08T04:49:36.961Z,9.4
2019-03-08T04:50:37.822Z,9.3
2019-03-08T04:51:38.490Z,9.4
2019-03-08T04:52:39.161Z,9.3
2019-03-08T04:53:39.829Z,9.2
2019-03-08T04:54:40.498Z,9.3
2019-03-08T04:55:41.167Z,9.2
2019-03-08T04:56:41.836Z,9.2
2019-03-08T04:57:42.506Z,9.1
2019-03-08T04:58:43.175Z,9.1
2019-03-08T04:59:43.890Z,9.1
2019-03-08T05:00:44.558Z,9.1
2019-03-08T05:01:45.230Z,8.9
2019-03-08T05:02:45.898Z,9.1
2019-03-08T05:03:46.566Z,9.0
2019-03-08T05:04:47.281Z,9.0
2019-03-08T05:05:47.951Z,9.1
2019-03-08T05:06:48.620Z,9.0
2019-03-08T05:07:49.433Z,9.0
2019-03-08T05:08:50.105Z,8.9
2019-03-08T05:09:50.773Z,9.0
2019-03-08T05:10:51.441Z,9.0
2019-03-08T05:11:52.109Z,9.0
2019-03-08T05:12:52.777Z,9.0
2019-03-08T05:13:53.448Z,9.0
2019-03-08T05:14:54.116Z,9.0
2019-03-08T05:15:54.785Z,9.0
2019-03-08T05:16:55.649Z,9.0
2019-03-08T05:17:56.291Z,8.9
2019-03-08T05:18:56.960Z,8.9
2019-03-08T05:19:57.627Z,8.9
2019-03-08T05:20:58.295Z,8.9
2019-03-08T05:21:59.010Z,8.9
2019-03-08T05:22:59.672Z,8.9
2019-03-08T05:24:00.340Z,8.9
2019-03-08T05:25:01.009Z,8.9
2019-03-08T05:26:01.883Z,8.8
2019-03-08T05:27:02.553Z,9.0
2019-03-08T05:28:04.801Z,9.0
2019-03-08T05:29:04.880Z,8.9
2019-03-08T05:30:05.550Z,8.9
2019-03-08T05:31:06.221Z,9.0
2019-03-08T05:32:06.890Z,8.9
2019-03-08T05:33:07.560Z,8.9
2019-03-08T05:34:08.336Z,8.9
2019-03-08T05:35:09.002Z,8.9
2019-03-08T05:36:09.673Z,8.9
2019-03-08T05:37:10.342Z,8.9
2019-03-08T05:38:11.107Z,9.0
2019-03-08T05:39:11.768Z,8.9
2019-03-08T05:40:12.439Z,8.9
2019-03-08T05:41:13.108Z,8.9
2019-03-08T05:42:13.778Z,8.9
2019-03-08T05:43:14.654Z,8.9
2019-03-08T05:44:15.324Z,8.9
2019-03-08T05:45:15.995Z,8.9
2019-03-08T05:46:16.664Z,8.9
2019-03-08T05:47:17.335Z,8.9
2019-03-08T05:48:18.007Z,8.9
2019-03-08T05:49:18.678Z,8.9
2019-03-08T05:50:19.348Z,9.0
2019-03-08T05:51:20.020Z,9.0
2019-03-08T05:52:20.896Z,8.9
2019-03-08T05:53:21.568Z,8.9
2019-03-08T05:54:22.239Z,9.0
2019-03-08T05:55:22.910Z,9.0
2019-03-08T05:56:23.583Z,9.1
2019-03-08T05:57:24.265Z,9.0
2019-03-08T05:58:24.923Z,9.0
2019-03-08T05:59:25.595Z,9.1
2019-03-08T06:00:31.888Z,9.0
2019-03-08T06:01:28.077Z,9.0
2019-03-08T06:02:28.752Z,9.1
2019-03-08T06:03:29.423Z,9.1
2019-03-08T06:04:30.095Z,9.1
2019-03-08T06:05:30.766Z,9.1
2019-03-08T06:06:31.439Z,9.1
2019-03-08T06:07:32.111Z,9.2
2019-03-08T06:08:32.783Z,9.2
2019-03-08T06:09:33.642Z,9.3
2019-03-08T06:10:34.315Z,9.2
2019-03-08T06:11:35.033Z,9.2
2019-03-08T06:12:35.705Z,9.3
2019-03-08T06:13:36.376Z,9.3
2019-03-08T06:14:37.048Z,9.4
2019-03-08T06:15:37.722Z,9.4
2019-03-08T06:16:38.395Z,9.4
2019-03-08T06:17:39.276Z,9.5
2019-03-08T06:18:39.996Z,9.5
2019-03-08T06:19:40.695Z,9.4
2019-03-08T06:20:41.351Z,9.5
2019-03-08T06:21:42.024Z,9.5
2019-03-08T06:22:42.746Z,9.5
2019-03-08T06:23:43.417Z,9.6
2019-03-08T06:24:44.094Z,9.7
2019-03-08T06:25:44.768Z,9.7
2019-03-08T06:26:45.435Z,9.8
2019-03-08T06:27:46.111Z,9.8
2019-03-08T06:28:46.783Z,9.8
2019-03-08T06:29:47.455Z,9.9
2019-03-08T06:30:48.129Z,9.8
2019-03-08T06:31:48.802Z,9.9
2019-03-08T06:32:49.477Z,10.0
2019-03-08T06:33:50.150Z,10.0
2019-03-08T06:34:51.051Z,10.0
2019-03-08T06:35:51.729Z,10.0
2019-03-08T06:36:52.406Z,10.0
2019-03-08T06:37:53.076Z,10.0
2019-03-08T06:38:53.752Z,9.9
2019-03-08T06:39:54.426Z,10.0
2019-03-08T06:40:55.102Z,10.0
2019-03-08T06:41:55.775Z,10.1
2019-03-08T06:42:56.483Z,10.1
2019-03-08T06:43:57.166Z,10.2
2019-03-08T06:44:57.842Z,10.2
2019-03-08T06:45:58.518Z,10.2
2019-03-08T06:46:59.200Z,10.2
2019-03-08T06:47:59.915Z,10.3
2019-03-08T06:49:00.590Z,10.2
2019-03-08T06:50:01.272Z,10.2
2019-03-08T06:51:01.990Z,10.2
2019-03-08T06:52:02.788Z,10.2
2019-03-08T06:53:03.463Z,10.2
2019-03-08T06:54:04.137Z,10.2
2019-03-08T06:55:04.814Z,10.2
2019-03-08T06:56:05.503Z,10.1
2019-03-08T06:57:06.210Z,10.1
2019-03-08T06:58:06.884Z,10.1
2019-03-08T06:59:07.560Z,10.1
2019-03-08T07:00:08.236Z,10.1
2019-03-08T07:01:08.989Z,10.0
2019-03-08T07:02:09.665Z,10.0
2019-03-08T07:03:10.338Z,9.9
2019-03-08T07:04:11.012Z,9.9
2019-03-08T07:05:11.686Z,9.9
2019-03-08T07:06:12.362Z,9.9
2019-03-08T07:07:13.036Z,9.9
2019-03-08T07:08:13.751Z,10.0
2019-03-08T07:09:14.670Z,10.0
2019-03-08T07:10:15.344Z,10.1
2019-03-08T07:11:16.021Z,10.1
2019-03-08T07:12:16.696Z,10.1
2019-03-08T07:13:17.370Z,10.1
2019-03-08T07:14:18.046Z,10.0
2019-03-08T07:15:18.722Z,10.1
2019-03-08T07:16:19.399Z,10.1
2019-03-08T07:17:20.592Z,10.1
2019-03-08T07:18:20.792Z,10.1
2019-03-08T07:19:21.466Z,10.2
2019-03-08T07:20:22.143Z,10.1
2019-03-08T07:21:22.818Z,10.1
2019-03-08T07:22:23.493Z,10.1
2019-03-08T07:23:27.959Z,10.1
2019-03-08T07:24:25.838Z,10.2
2019-03-08T07:25:26.560Z,10.2
2019-03-08T07:26:27.358Z,10.1
2019-03-08T07:27:28.034Z,10.2
2019-03-08T07:28:28.726Z,10.2
2019-03-08T07:29:29.388Z,10.3
2019-03-08T07:30:30.098Z,10.2
2019-03-08T07:31:30.739Z,10.3
2019-03-08T07:32:31.461Z,10.4
2019-03-08T07:33:32.139Z,10.3
2019-03-08T07:34:32.814Z,10.5
2019-03-08T07:35:33.663Z,10.5
2019-03-08T07:36:34.402Z,10.6
2019-03-08T07:37:35.063Z,10.6
2019-03-08T07:38:35.739Z,10.6
2019-03-08T07:39:36.415Z,10.7
2019-03-08T07:40:37.091Z,10.8
2019-03-08T07:41:37.769Z,10.8
2019-03-08T07:42:38.445Z,10.6
2019-03-08T07:43:39.120Z,10.6
2019-03-08T07:44:40.023Z,10.6
2019-03-08T07:45:40.698Z,10.6
2019-03-08T07:46:41.376Z,10.6
2019-03-08T07:47:42.053Z,10.6
2019-03-08T07:48:42.729Z,10.6
2019-03-08T07:49:43.457Z,10.5
2019-03-08T07:50:44.133Z,10.4
2019-03-08T07:51:44.809Z,10.4
2019-03-08T07:52:45.485Z,10.4
2019-03-08T07:53:46.161Z,10.4
2019-03-08T07:54:52.925Z,10.5
2019-03-08T07:55:48.509Z,10.6
2019-03-08T07:56:49.186Z,10.6
2019-03-08T07:57:49.863Z,10.6
2019-03-08T07:58:50.549Z,10.6
2019-03-08T07:59:53.999Z,10.8
2019-03-08T08:00:51.935Z,10.9
2019-03-08T08:01:52.619Z,10.9
2019-03-08T08:02:53.292Z,10.9
2019-03-08T08:03:53.966Z,10.9
2019-03-08T08:04:54.642Z,11.0
2019-03-08T08:05:58.281Z,10.9
2019-03-08T08:06:56.986Z,11.0
2019-03-08T08:07:57.663Z,11.1
2019-03-08T08:08:58.346Z,11.1
2019-03-08T08:09:59.067Z,11.2
2019-03-08T08:10:59.835Z,11.2
2019-03-08T08:12:00.511Z,11.2
2019-03-08T08:13:01.189Z,11.3
2019-03-08T08:14:01.865Z,11.3
2019-03-08T08:15:02.594Z,11.3
2019-03-08T08:16:03.272Z,11.4
2019-03-08T08:17:03.951Z,11.3
2019-03-08T08:18:04.624Z,11.5
2019-03-08T08:19:05.302Z,11.4
2019-03-08T08:20:06.162Z,11.4
2019-03-08T08:21:06.840Z,11.4
2019-03-08T08:22:07.517Z,11.5
2019-03-08T08:23:08.194Z,11.4
2019-03-08T08:24:08.872Z,11.3
2019-03-08T08:25:09.549Z,11.2
2019-03-08T08:26:10.226Z,11.1
2019-03-08T08:27:10.902Z,11.1
2019-03-08T08:28:11.629Z,11.1
2019-03-08T08:29:12.489Z,11.3
2019-03-08T08:30:13.167Z,11.3
2019-03-08T08:31:13.845Z,11.4
2019-03-08T08:32:14.522Z,11.4
2019-03-08T08:33:16.623Z,11.5
2019-03-08T08:34:15.916Z,11.7
2019-03-08T08:35:16.647Z,11.8
2019-03-08T08:36:17.369Z,12.1
2019-03-08T08:37:18.048Z,12.2
2019-03-08T08:38:18.767Z,12.4
2019-03-08T08:39:19.443Z,12.2
2019-03-08T08:40:20.122Z,12.2
2019-03-08T08:41:20.802Z,12.2
2019-03-08T08:42:21.476Z,12.2
2019-03-08T08:43:22.156Z,12.1
2019-03-08T08:44:22.842Z,12.1
2019-03-08T08:45:23.550Z,12.0
2019-03-08T08:46:24.312Z,11.8
2019-03-08T08:47:25.036Z,11.8
2019-03-08T08:48:25.712Z,11.6
2019-03-08T08:49:26.389Z,11.4
2019-03-08T08:50:27.065Z,11.3
2019-03-08T08:51:27.741Z,11.2
2019-03-08T08:52:28.418Z,11.1
2019-03-08T08:53:29.103Z,11.0
2019-03-08T08:54:29.818Z,11.0
2019-03-08T08:55:30.637Z,10.8
2019-03-08T08:56:31.313Z,10.9
2019-03-08T08:57:31.991Z,10.9
2019-03-08T08:58:32.665Z,10.8
2019-03-08T08:59:33.341Z,10.8
2019-03-08T09:00:34.058Z,10.8
2019-03-08T09:01:34.732Z,10.7
2019-03-08T09:02:35.408Z,10.7
2019-03-08T09:03:36.086Z,10.7
2019-03-08T09:04:36.882Z,10.6
2019-03-08T09:05:37.558Z,10.5
2019-03-08T09:06:38.281Z,10.4
2019-03-08T09:07:38.950Z,10.2
2019-03-08T09:08:39.625Z,10.1
2019-03-08T09:09:40.301Z,9.8
2019-03-08T09:10:40.977Z,9.7
2019-03-08T09:11:47.177Z,9.5
2019-03-08T09:12:42.368Z,9.4
2019-03-08T09:13:43.045Z,9.2
2019-03-08T09:14:43.744Z,9.1
2019-03-08T09:15:44.444Z,9.0
2019-03-08T09:16:45.119Z,9.0
2019-03-08T09:17:45.793Z,9.0
2019-03-08T09:18:46.469Z,8.9
2019-03-08T09:19:47.144Z,8.9
2019-03-08T09:20:47.817Z,8.7
2019-03-08T09:21:48.670Z,8.7
2019-03-08T09:22:49.345Z,8.7
2019-03-08T09:23:50.021Z,8.7
2019-03-08T09:24:50.695Z,8.7
2019-03-08T09:25:51.370Z,8.6
2019-03-08T09:26:52.092Z,8.6
2019-03-08T09:27:52.768Z,8.7
2019-03-08T09:28:53.440Z,8.6
2019-03-08T09:29:54.114Z,8.6
2019-03-08T09:30:54.999Z,8.6
2019-03-08T09:31:55.673Z,8.7
2019-03-08T09:32:59.502Z,8.6
2019-03-08T09:33:57.063Z,8.5
2019-03-08T09:34:57.739Z,8.5
2019-03-08T09:35:58.459Z,8.5
2019-03-08T09:36:59.136Z,8.5
2019-03-08T09:37:59.858Z,8.6
2019-03-08T09:39:00.532Z,8.6
2019-03-08T09:40:01.304Z,8.6
2019-03-08T09:41:01.974Z,8.8
2019-03-08T09:42:02.650Z,8.7
2019-03-08T09:43:03.325Z,8.8
2019-03-08T09:44:03.998Z,8.9
2019-03-08T09:45:04.674Z,9.0
2019-03-08T09:46:05.349Z,9.0
2019-03-08T09:47:06.023Z,9.1
2019-03-08T09:48:06.798Z,9.2
2019-03-08T09:49:07.472Z,9.3
2019-03-08T09:50:08.149Z,9.5
2019-03-08T09:51:08.822Z,9.6
2019-03-08T09:52:09.495Z,9.7
2019-03-08T09:53:10.172Z,9.8
2019-03-08T09:54:10.846Z,9.8
2019-03-08T09:55:11.522Z,10.0
2019-03-08T09:56:12.199Z,10.1
2019-03-08T09:57:13.056Z,10.2
2019-03-08T09:58:13.731Z,10.3
2019-03-08T09:59:14.409Z,10.4
2019-03-08T10:00:15.083Z,10.4
2019-03-08T10:01:16.877Z,10.4
2019-03-08T10:02:17.428Z,10.5
2019-03-08T10:03:18.106Z,10.3
2019-03-08T10:04:18.786Z,10.2
2019-03-08T10:05:19.461Z,10.2
2019-03-08T10:06:20.383Z,10.1
2019-03-08T10:07:21.059Z,10.2
2019-03-08T10:08:21.736Z,10.2
2019-03-08T10:09:22.416Z,10.1
2019-03-08T10:10:23.090Z,10.2
2019-03-08T10:11:23.766Z,10.2
2019-03-08T10:12:24.445Z,10.3
2019-03-08T10:13:25.121Z,10.4
2019-03-08T10:14:25.797Z,10.4
2019-03-08T10:15:26.515Z,10.5
2019-03-08T10:16:27.193Z,10.5
2019-03-08T10:17:27.872Z,10.6
2019-03-08T10:18:28.548Z,10.6
2019-03-08T10:19:29.225Z,10.6
2019-03-08T10:20:29.908Z,10.6
2019-03-08T10:21:30.629Z,10.8
2019-03-08T10:22:31.354Z,10.7
2019-03-08T10:23:32.170Z,10.7
2019-03-08T10:24:32.848Z,10.6
2019-03-08T10:25:33.525Z,10.6
2019-03-08T10:26:34.249Z,10.6
2019-03-08T10:27:38.081Z,10.5
2019-03-08T10:28:36.596Z,10.7
2019-03-08T10:29:37.323Z,10.6
2019-03-08T10:30:38.000Z,10.8
2019-03-08T10:31:38.681Z,10.9
2019-03-08T10:32:39.551Z,10.9
2019-03-08T10:33:46.594Z,11.0
2019-03-08T10:34:41.897Z,10.9
2019-03-08T10:35:42.575Z,10.9
2019-03-08T10:36:43.252Z,11.0
2019-03-08T10:37:43.929Z,11.2
2019-03-08T10:38:46.238Z,11.2
2019-03-08T10:39:45.325Z,11.3
2019-03-08T10:40:46.001Z,11.3
2019-03-08T10:41:46.904Z,11.3
2019-03-08T10:42:47.580Z,11.3
2019-03-08T10:43:48.260Z,11.3
2019-03-08T10:44:48.938Z,11.3
2019-03-08T10:45:49.612Z,11.3
2019-03-08T10:46:50.289Z,11.4
2019-03-08T10:47:56.074Z,11.3
2019-03-08T10:48:52.639Z,11.3
2019-03-08T10:49:55.332Z,11.3
2019-03-08T10:50:54.986Z,11.3
2019-03-08T10:51:55.668Z,11.3
2019-03-08T10:52:56.389Z,11.4
2019-03-08T10:54:00.628Z,11.5
2019-03-08T10:54:58.737Z,11.6
2019-03-08T10:55:59.414Z,11.7
2019-03-08T10:57:00.139Z,11.7
2019-03-08T10:58:00.820Z,11.7
2019-03-08T10:59:01.495Z,11.8
2019-03-08T11:00:02.335Z,11.7
2019-03-08T11:01:03.015Z,11.5
2019-03-08T11:02:03.693Z,11.5
2019-03-08T11:03:04.370Z,11.4
2019-03-08T11:04:06.036Z,11.4
2019-03-08T11:05:06.717Z,11.4
2019-03-08T11:06:07.401Z,11.3
2019-03-08T11:07:08.075Z,11.3
2019-03-08T11:08:09.062Z,11.3
2019-03-08T11:09:10.017Z,11.3
2019-03-08T11:10:10.695Z,11.0
2019-03-08T11:11:11.420Z,11.2
2019-03-08T11:12:12.098Z,11.2
2019-03-08T11:13:12.777Z,11.2
2019-03-08T11:14:13.456Z,11.1
2019-03-08T11:15:14.180Z,11.0
2019-03-08T11:16:14.855Z,11.0
2019-03-08T11:17:15.629Z,11.0
2019-03-08T11:18:16.306Z,10.9
2019-03-08T11:19:16.984Z,10.7
2019-03-08T11:20:17.661Z,10.8
2019-03-08T11:21:18.338Z,10.8
2019-03-08T11:22:19.017Z,10.8
2019-03-08T11:23:19.712Z,10.9
2019-03-08T11:24:20.381Z,11.1
2019-03-08T11:25:21.059Z,11.1
2019-03-08T11:26:21.814Z,11.2
2019-03-08T11:27:22.491Z,11.1
2019-03-08T11:28:23.168Z,11.3
2019-03-08T11:29:23.849Z,11.5
2019-03-08T11:30:24.525Z,11.6
2019-03-08T11:31:25.249Z,11.5
2019-03-08T11:32:25.926Z,11.5
2019-03-08T11:33:26.605Z,11.6
2019-03-08T11:34:27.283Z,11.7
2019-03-08T11:35:28.118Z,11.8
2019-03-08T11:36:28.795Z,11.9
2019-03-08T11:37:29.472Z,11.7
2019-03-08T11:38:30.150Z,11.7
2019-03-08T11:39:30.831Z,11.6
2019-03-08T11:40:31.508Z,11.5
2019-03-08T11:41:32.185Z,11.4
2019-03-08T11:42:32.866Z,11.3
2019-03-08T11:43:33.543Z,11.2
2019-03-08T11:44:34.411Z,11.1
2019-03-08T11:45:35.088Z,11.1
2019-03-08T11:46:35.815Z,11.1
2019-03-08T11:47:36.498Z,11.1
2019-03-08T11:48:37.219Z,10.9
2019-03-08T11:49:37.905Z,10.9
2019-03-08T11:50:38.621Z,11.0
2019-03-08T11:51:39.300Z,11.0
2019-03-08T11:52:39.978Z,10.9
2019-03-08T11:53:40.665Z,10.9
2019-03-08T11:54:41.347Z,10.8
2019-03-08T11:55:42.015Z,10.6
2019-03-08T11:56:42.695Z,10.6
2019-03-08T11:57:43.373Z,10.5
2019-03-08T11:58:44.095Z,10.5
2019-03-08T11:59:44.772Z,10.5
2019-03-08T12:00:45.448Z,10.5
2019-03-08T12:01:46.224Z,10.5
2019-03-08T12:02:46.903Z,10.5
2019-03-08T12:03:47.580Z,10.6
2019-03-08T12:04:48.258Z,10.6
2019-03-08T12:05:49.967Z,10.6
2019-03-08T12:06:50.603Z,10.7
2019-03-08T12:07:51.283Z,10.7
2019-03-08T12:08:51.957Z,10.7
2019-03-08T12:09:52.633Z,10.8
2019-03-08T12:10:53.365Z,10.7
2019-03-08T12:11:54.043Z,10.7
2019-03-08T12:12:54.719Z,10.7
2019-03-08T12:13:55.444Z,10.8
2019-03-08T12:14:56.120Z,10.8
2019-03-08T12:15:56.798Z,10.9
2019-03-08T12:16:57.473Z,10.9
2019-03-08T12:17:58.149Z,11.0
2019-03-08T12:18:58.827Z,11.0
2019-03-08T12:19:59.694Z,11.0
2019-03-08T12:21:00.372Z,11.2
2019-03-08T12:22:01.048Z,11.1
2019-03-08T12:23:01.726Z,11.1
2019-03-08T12:24:02.402Z,11.1
2019-03-08T12:25:03.082Z,10.9
2019-03-08T12:26:03.825Z,10.9
2019-03-08T12:27:04.792Z,10.9
2019-03-08T12:28:05.452Z,10.8
2019-03-08T12:29:06.283Z,11.0
2019-03-08T12:30:06.958Z,11.1
2019-03-08T12:31:07.632Z,11.1
2019-03-08T12:32:08.309Z,11.3
2019-03-08T12:33:08.987Z,11.3
2019-03-08T12:34:09.664Z,11.4
2019-03-08T12:35:10.339Z,11.4
2019-03-08T12:36:11.018Z,11.5
2019-03-08T12:37:11.696Z,11.6
2019-03-08T12:38:12.616Z,11.5
2019-03-08T12:39:13.292Z,11.6
2019-03-08T12:40:13.969Z,11.6
2019-03-08T12:41:14.646Z,11.6
2019-03-08T12:42:15.345Z,11.5
2019-03-08T12:43:16.001Z,11.5
2019-03-08T12:44:16.725Z,11.5
2019-03-08T12:45:17.399Z,11.5
2019-03-08T12:46:18.074Z,11.5
2019-03-08T12:47:18.798Z,11.5
2019-03-08T12:48:23.832Z,11.4
2019-03-08T12:49:21.138Z,11.3
2019-03-08T12:50:21.814Z,11.4
2019-03-08T12:51:22.493Z,11.4
2019-03-08T12:52:23.170Z,11.5
2019-03-08T12:53:23.848Z,11.6
2019-03-08T12:54:24.526Z,11.7
2019-03-08T12:55:25.201Z,11.8
2019-03-08T12:56:26.045Z,11.8
2019-03-08T12:57:26.723Z,11.9
2019-03-08T12:58:27.448Z,12.0
2019-03-08T12:59:28.172Z,12.0
2019-03-08T13:00:28.854Z,12.0
2019-03-08T13:01:29.531Z,12.0
2019-03-08T13:02:30.207Z,12.0
2019-03-08T13:03:30.884Z,12.1
2019-03-08T13:04:31.561Z,12.1
2019-03-08T13:05:32.457Z,12.2
2019-03-08T13:06:33.135Z,11.9
2019-03-08T13:07:33.855Z,12.1
2019-03-08T13:08:34.529Z,11.9
2019-03-08T13:09:35.207Z,12.0
2019-03-08T13:10:35.884Z,11.8
2019-03-08T13:11:36.562Z,11.7
2019-03-08T13:12:37.287Z,11.7
2019-03-08T13:13:37.967Z,11.8
2019-03-08T13:14:38.643Z,11.7
2019-03-08T13:15:39.323Z,11.7
2019-03-08T13:16:40.000Z,11.6
2019-03-08T13:17:40.676Z,11.7
2019-03-08T13:18:41.354Z,11.7
2019-03-08T13:19:42.032Z,11.6
2019-03-08T13:20:42.710Z,11.6
2019-03-08T13:21:43.387Z,11.6
2019-03-08T13:22:44.162Z,11.6
2019-03-08T13:23:44.883Z,11.6
2019-03-08T13:24:45.559Z,11.6
2019-03-08T13:25:46.238Z,11.5
2019-03-08T13:26:46.915Z,11.5
2019-03-08T13:27:47.595Z,11.5
2019-03-08T13:28:48.271Z,11.6
2019-03-08T13:29:48.948Z,11.6
2019-03-08T13:30:49.625Z,11.7
2019-03-08T13:31:50.477Z,11.7
2019-03-08T13:32:51.155Z,11.7
2019-03-08T13:33:51.833Z,11.7
2019-03-08T13:34:52.508Z,11.6
2019-03-08T13:35:53.187Z,11.6
2019-03-08T13:36:53.910Z,11.5
2019-03-08T13:37:54.587Z,11.5
2019-03-08T13:38:55.313Z,11.5
2019-03-08T13:39:56.081Z,11.4
2019-03-08T13:40:56.791Z,11.4
2019-03-08T13:41:57.466Z,11.4
2019-03-08T13:42:58.144Z,11.3